sensor_id;sensor_type;location;lat;lon;timestamp;pressure;altitude;pressure_sealevel;temperature;humidity
54592;BME280;40488;48.558;18.150;2023-07-31T00:00:08;99342.47;;;17.58;89.33
54592;BME280;40488;48.558;18.150;2023-07-31T00:02:37;99348.34;;;17.61;89.16
54592;BME280;40488;48.558;18.150;2023-07-31T00:05:08;99341.59;;;17.59;89.17
54592;BME280;40488;48.558;18.150;2023-07-31T00:07:37;99340.84;;;17.55;89.09
54592;BME280;40488;48.558;18.150;2023-07-31T00:10:07;99332.16;;;17.58;89.00
54592;BME280;40488;48.558;18.150;2023-07-31T00:12:35;99328.06;;;17.51;88.78
54592;BME280;40488;48.558;18.150;2023-07-31T00:15:05;99327.03;;;17.30;88.51
54592;BME280;40488;48.558;18.150;2023-07-31T00:17:35;99334.94;;;17.25;88.98
54592;BME280;40488;48.558;18.150;2023-07-31T00:20:04;99334.84;;;17.28;88.87
54592;BME280;40488;48.558;18.150;2023-07-31T00:22:35;99330.38;;;17.33;88.92
54592;BME280;40488;48.558;18.150;2023-07-31T00:25:05;99331.31;;;17.31;88.81
54592;BME280;40488;48.558;18.150;2023-07-31T00:27:33;99338.13;;;17.33;88.80
54592;BME280;40488;48.558;18.150;2023-07-31T00:30:03;99349.22;;;17.35;88.71
54592;BME280;40488;48.558;18.150;2023-07-31T00:32:32;99354.44;;;17.34;88.46
54592;BME280;40488;48.558;18.150;2023-07-31T00:35:01;99359.75;;;17.29;88.63
54592;BME280;40488;48.558;18.150;2023-07-31T00:37:31;99369.16;;;17.04;88.75
54592;BME280;40488;48.558;18.150;2023-07-31T00:40:01;99365.88;;;16.99;89.03
54592;BME280;40488;48.558;18.150;2023-07-31T00:42:31;99362.34;;;17.03;89.33
54592;BME280;40488;48.558;18.150;2023-07-31T00:45:00;99356.44;;;17.00;89.42
54592;BME280;40488;48.558;18.150;2023-07-31T00:47:30;99352.97;;;17.01;89.74
54592;BME280;40488;48.558;18.150;2023-07-31T00:49:59;99357.44;;;16.96;89.70
54592;BME280;40488;48.558;18.150;2023-07-31T00:52:28;99368.59;;;16.96;89.77
54592;BME280;40488;48.558;18.150;2023-07-31T00:54:57;99368.53;;;16.98;89.79
54592;BME280;40488;48.558;18.150;2023-07-31T00:57:28;99361.66;;;16.97;89.71
54592;BME280;40488;48.558;18.150;2023-07-31T00:59:57;99360.84;;;16.96;89.86
54592;BME280;40488;48.558;18.150;2023-07-31T01:02:25;99346.97;;;17.00;90.19
54592;BME280;40488;48.558;18.150;2023-07-31T01:04:55;99349.94;;;17.14;90.46
54592;BME280;40488;48.558;18.150;2023-07-31T01:07:34;99359.22;;;17.20;90.23
54592;BME280;40488;48.558;18.150;2023-07-31T01:10:08;99359.00;;;17.26;90.61
54592;BME280;40488;48.558;18.150;2023-07-31T01:12:41;99366.59;;;17.30;90.62
54592;BME280;40488;48.558;18.150;2023-07-31T01:15:14;99362.44;;;17.26;90.84
54592;BME280;40488;48.558;18.150;2023-07-31T01:17:45;99356.66;;;17.18;90.80
54592;BME280;40488;48.558;18.150;2023-07-31T01:20:17;99363.63;;;17.16;91.09
54592;BME280;40488;48.558;18.150;2023-07-31T01:23:16;99358.47;;;17.16;91.43
54592;BME280;40488;48.558;18.150;2023-07-31T01:26:03;99365.06;;;17.25;91.56
54592;BME280;40488;48.558;18.150;2023-07-31T01:28:43;99365.09;;;17.23;91.68
54592;BME280;40488;48.558;18.150;2023-07-31T01:31:16;99371.41;;;17.15;91.82
54592;BME280;40488;48.558;18.150;2023-07-31T01:33:47;99364.47;;;17.17;92.10
54592;BME280;40488;48.558;18.150;2023-07-31T01:36:17;99360.03;;;17.20;92.58
54592;BME280;40488;48.558;18.150;2023-07-31T01:38:46;99358.97;;;17.27;92.80
54592;BME280;40488;48.558;18.150;2023-07-31T01:41:18;99363.22;;;17.28;92.81
54592;BME280;40488;48.558;18.150;2023-07-31T01:43:47;99365.00;;;17.26;93.03
54592;BME280;40488;48.558;18.150;2023-07-31T01:46:16;99357.56;;;17.17;92.98
54592;BME280;40488;48.558;18.150;2023-07-31T01:48:45;99355.19;;;17.11;92.94
54592;BME280;40488;48.558;18.150;2023-07-31T01:51:14;99352.28;;;16.94;93.16
54592;BME280;40488;48.558;18.150;2023-07-31T01:53:43;99348.84;;;16.95;93.33
54592;BME280;40488;48.558;18.150;2023-07-31T01:56:12;99346.06;;;17.01;93.71
54592;BME280;40488;48.558;18.150;2023-07-31T01:58:42;99350.16;;;17.08;93.67
54592;BME280;40488;48.558;18.150;2023-07-31T02:01:11;99341.72;;;17.03;93.60
54592;BME280;40488;48.558;18.150;2023-07-31T02:03:40;99348.63;;;17.01;93.53
54592;BME280;40488;48.558;18.150;2023-07-31T02:06:09;99357.28;;;17.00;93.92
54592;BME280;40488;48.558;18.150;2023-07-31T02:08:38;99353.69;;;17.04;93.86
54592;BME280;40488;48.558;18.150;2023-07-31T02:11:07;99353.78;;;17.01;93.74
54592;BME280;40488;48.558;18.150;2023-07-31T02:13:36;99366.28;;;16.87;93.44
54592;BME280;40488;48.558;18.150;2023-07-31T02:16:07;99364.22;;;16.70;94.03
54592;BME280;40488;48.558;18.150;2023-07-31T02:18:36;99367.13;;;16.60;94.07
54592;BME280;40488;48.558;18.150;2023-07-31T02:21:04;99367.97;;;16.31;93.99
54592;BME280;40488;48.558;18.150;2023-07-31T02:23:33;99375.59;;;16.34;94.22
54592;BME280;40488;48.558;18.150;2023-07-31T02:26:02;99378.97;;;16.36;94.46
54592;BME280;40488;48.558;18.150;2023-07-31T02:28:31;99388.31;;;16.39;94.50
54592;BME280;40488;48.558;18.150;2023-07-31T02:31:00;99388.25;;;16.42;94.48
54592;BME280;40488;48.558;18.150;2023-07-31T02:33:30;99395.22;;;16.38;94.55
54592;BME280;40488;48.558;18.150;2023-07-31T02:35:59;99386.66;;;16.38;94.56
54592;BME280;40488;48.558;18.150;2023-07-31T02:38:28;99391.81;;;16.38;94.30
54592;BME280;40488;48.558;18.150;2023-07-31T02:40:57;99380.50;;;16.42;94.06
54592;BME280;40488;48.558;18.150;2023-07-31T02:43:27;99391.53;;;16.47;93.81
54592;BME280;40488;48.558;18.150;2023-07-31T02:45:56;99386.38;;;16.47;93.42
54592;BME280;40488;48.558;18.150;2023-07-31T02:48:26;99393.31;;;16.45;93.32
54592;BME280;40488;48.558;18.150;2023-07-31T02:50:56;99389.75;;;16.49;93.03
54592;BME280;40488;48.558;18.150;2023-07-31T02:53:26;99389.88;;;16.46;92.69
54592;BME280;40488;48.558;18.150;2023-07-31T02:55:54;99381.41;;;16.41;92.60
54592;BME280;40488;48.558;18.150;2023-07-31T02:58:23;99386.94;;;16.29;92.43
54592;BME280;40488;48.558;18.150;2023-07-31T03:00:52;99389.44;;;16.30;92.19
54592;BME280;40488;48.558;18.150;2023-07-31T03:03:21;99385.16;;;16.31;92.00
54592;BME280;40488;48.558;18.150;2023-07-31T03:05:50;99386.72;;;16.35;91.37
54592;BME280;40488;48.558;18.150;2023-07-31T03:08:20;99381.78;;;16.29;91.25
54592;BME280;40488;48.558;18.150;2023-07-31T03:10:49;99382.84;;;16.22;90.91
54592;BME280;40488;48.558;18.150;2023-07-31T03:13:18;99378.56;;;16.21;90.63
54592;BME280;40488;48.558;18.150;2023-07-31T03:15:47;99383.78;;;16.18;90.82
54592;BME280;40488;48.558;18.150;2023-07-31T03:18:16;99394.19;;;16.15;90.38
54592;BME280;40488;48.558;18.150;2023-07-31T03:20:45;99399.34;;;16.15;90.46
54592;BME280;40488;48.558;18.150;2023-07-31T03:23:13;99399.97;;;16.23;90.62
54592;BME280;40488;48.558;18.150;2023-07-31T03:25:57;99400.69;;;16.28;90.55
54592;BME280;40488;48.558;18.150;2023-07-31T03:28:29;99401.59;;;16.25;90.34
54592;BME280;40488;48.558;18.150;2023-07-31T03:30:58;99397.22;;;16.29;90.78
54592;BME280;40488;48.558;18.150;2023-07-31T03:33:27;99393.75;;;16.30;90.68
54592;BME280;40488;48.558;18.150;2023-07-31T03:35:56;99388.72;;;16.27;90.73
54592;BME280;40488;48.558;18.150;2023-07-31T03:38:25;99381.94;;;16.23;90.43
54592;BME280;40488;48.558;18.150;2023-07-31T03:40:55;99388.84;;;16.21;90.67
54592;BME280;40488;48.558;18.150;2023-07-31T03:43:26;99392.06;;;16.29;90.76
54592;BME280;40488;48.558;18.150;2023-07-31T03:45:55;99392.22;;;16.23;90.26
54592;BME280;40488;48.558;18.150;2023-07-31T03:48:24;99393.16;;;16.20;90.29
54592;BME280;40488;48.558;18.150;2023-07-31T03:50:54;99385.50;;;16.19;90.44
54592;BME280;40488;48.558;18.150;2023-07-31T03:53:24;99388.84;;;16.21;90.28
54592;BME280;40488;48.558;18.150;2023-07-31T03:55:53;99394.00;;;16.21;90.43
54592;BME280;40488;48.558;18.150;2023-07-31T03:58:23;99393.22;;;16.19;90.40
54592;BME280;40488;48.558;18.150;2023-07-31T04:00:52;99395.78;;;16.19;90.22
54592;BME280;40488;48.558;18.150;2023-07-31T04:03:21;99402.63;;;16.20;90.38
54592;BME280;40488;48.558;18.150;2023-07-31T04:05:50;99411.25;;;16.19;90.00
54592;BME280;40488;48.558;18.150;2023-07-31T04:08:19;99426.69;;;16.19;89.89
54592;BME280;40488;48.558;18.150;2023-07-31T04:10:48;99427.53;;;16.19;89.88
54592;BME280;40488;48.558;18.150;2023-07-31T04:13:17;99432.50;;;16.25;90.19
54592;BME280;40488;48.558;18.150;2023-07-31T04:15:50;99429.25;;;16.19;89.88
54592;BME280;40488;48.558;18.150;2023-07-31T04:18:19;99436.81;;;16.25;89.94
54592;BME280;40488;48.558;18.150;2023-07-31T04:20:48;99431.66;;;16.25;89.45
54592;BME280;40488;48.558;18.150;2023-07-31T04:23:17;99426.50;;;16.25;89.72
54592;BME280;40488;48.558;18.150;2023-07-31T04:25:46;99427.50;;;16.21;89.50
54592;BME280;40488;48.558;18.150;2023-07-31T04:28:14;99426.50;;;16.25;89.63
54592;BME280;40488;48.558;18.150;2023-07-31T04:30:43;99419.63;;;16.27;89.44
54592;BME280;40488;48.558;18.150;2023-07-31T04:33:17;99421.06;;;16.35;89.55
54592;BME280;40488;48.558;18.150;2023-07-31T04:35:50;99425.06;;;16.45;89.37
54592;BME280;40488;48.558;18.150;2023-07-31T04:38:20;99425.81;;;16.49;89.12
54592;BME280;40488;48.558;18.150;2023-07-31T04:40:50;99424.50;;;16.36;89.13
54592;BME280;40488;48.558;18.150;2023-07-31T04:43:19;99426.09;;;16.40;89.46
54592;BME280;40488;48.558;18.150;2023-07-31T04:45:48;99420.63;;;16.52;89.44
54592;BME280;40488;48.558;18.150;2023-07-31T04:48:19;99425.59;;;16.58;89.30
54592;BME280;40488;48.558;18.150;2023-07-31T04:50:48;99433.06;;;16.67;89.24
54592;BME280;40488;48.558;18.150;2023-07-31T04:53:17;99433.50;;;16.81;89.23
54592;BME280;40488;48.558;18.150;2023-07-31T04:55:46;99429.63;;;16.94;89.32
54592;BME280;40488;48.558;18.150;2023-07-31T04:58:14;99431.91;;;17.05;89.23
54592;BME280;40488;48.558;18.150;2023-07-31T05:00:43;99427.22;;;17.17;88.96
54592;BME280;40488;48.558;18.150;2023-07-31T05:03:13;99433.66;;;17.30;88.75
54592;BME280;40488;48.558;18.150;2023-07-31T05:05:43;99432.97;;;17.25;88.52
54592;BME280;40488;48.558;18.150;2023-07-31T05:08:12;99440.69;;;17.25;88.46
54592;BME280;40488;48.558;18.150;2023-07-31T05:10:41;99431.31;;;17.23;88.43
54592;BME280;40488;48.558;18.150;2023-07-31T05:13:10;99435.16;;;17.37;88.54
54592;BME280;40488;48.558;18.150;2023-07-31T05:15:39;99431.44;;;17.46;88.57
54592;BME280;40488;48.558;18.150;2023-07-31T05:18:08;99438.41;;;17.44;88.70
54592;BME280;40488;48.558;18.150;2023-07-31T05:20:36;99441.78;;;17.44;88.64
54592;BME280;40488;48.558;18.150;2023-07-31T05:23:07;99437.47;;;17.47;88.71
54592;BME280;40488;48.558;18.150;2023-07-31T05:25:36;99433.00;;;17.52;88.94
54592;BME280;40488;48.558;18.150;2023-07-31T05:28:04;99441.25;;;17.63;88.96
54592;BME280;40488;48.558;18.150;2023-07-31T05:30:33;99439.09;;;17.75;88.76
54592;BME280;40488;48.558;18.150;2023-07-31T08:36:04;99418.31;;;22.83;59.07
54592;BME280;40488;48.558;18.150;2023-07-31T08:38:33;99414.44;;;22.90;58.61
54592;BME280;40488;48.558;18.150;2023-07-31T08:41:03;99410.25;;;23.03;58.74
54592;BME280;40488;48.558;18.150;2023-07-31T08:43:33;99417.44;;;23.29;58.07
54592;BME280;40488;48.558;18.150;2023-07-31T08:46:02;99410.47;;;23.59;57.18
54592;BME280;40488;48.558;18.150;2023-07-31T08:48:32;99414.81;;;23.88;56.25
54592;BME280;40488;48.558;18.150;2023-07-31T08:51:01;99415.88;;;24.00;54.17
54592;BME280;40488;48.558;18.150;2023-07-31T08:53:31;99415.44;;;24.08;53.17
54592;BME280;40488;48.558;18.150;2023-07-31T08:56:00;99409.38;;;24.07;52.25
54592;BME280;40488;48.558;18.150;2023-07-31T08:58:31;99410.22;;;24.22;52.21
54592;BME280;40488;48.558;18.150;2023-07-31T09:01:03;99401.84;;;24.31;51.60
54592;BME280;40488;48.558;18.150;2023-07-31T09:03:34;99406.41;;;24.41;51.56
54592;BME280;40488;48.558;18.150;2023-07-31T09:06:06;99406.75;;;24.63;51.15
54592;BME280;40488;48.558;18.150;2023-07-31T09:08:39;99410.38;;;24.75;50.41
54592;BME280;40488;48.558;18.150;2023-07-31T09:11:10;99403.13;;;24.80;49.29
54592;BME280;40488;48.558;18.150;2023-07-31T09:13:40;99408.78;;;24.87;49.25
54592;BME280;40488;48.558;18.150;2023-07-31T09:16:10;99408.44;;;25.05;49.62
54592;BME280;40488;48.558;18.150;2023-07-31T09:18:53;99408.31;;;25.21;49.15
54592;BME280;40488;48.558;18.150;2023-07-31T09:21:24;99399.06;;;25.15;48.59
54592;BME280;40488;48.558;18.150;2023-07-31T09:23:57;99399.97;;;25.28;48.65
54592;BME280;40488;48.558;18.150;2023-07-31T09:26:30;99400.81;;;25.42;48.53
54592;BME280;40488;48.558;18.150;2023-07-31T09:28:59;99402.13;;;25.49;48.27
54592;BME280;40488;48.558;18.150;2023-07-31T09:31:32;99400.69;;;25.57;47.76
54592;BME280;40488;48.558;18.150;2023-07-31T09:34:01;99401.53;;;25.58;47.55
54592;BME280;40488;48.558;18.150;2023-07-31T09:36:30;99409.69;;;25.66;47.87
54592;BME280;40488;48.558;18.150;2023-07-31T09:39:03;99402.59;;;25.80;48.37
54592;BME280;40488;48.558;18.150;2023-07-31T09:41:36;99401.47;;;25.97;47.54
54592;BME280;40488;48.558;18.150;2023-07-31T09:44:06;99402.31;;;26.10;46.94
54592;BME280;40488;48.558;18.150;2023-07-31T09:46:35;99397.63;;;26.15;46.13
54592;BME280;40488;48.558;18.150;2023-07-31T09:49:07;99389.53;;;26.18;46.57
54592;BME280;40488;48.558;18.150;2023-07-31T09:51:38;99383.38;;;26.19;46.49
54592;BME280;40488;48.558;18.150;2023-07-31T09:54:13;99389.22;;;26.10;45.47
54592;BME280;40488;48.558;18.150;2023-07-31T09:56:43;99394.34;;;25.99;46.72
54592;BME280;40488;48.558;18.150;2023-07-31T09:59:14;99379.41;;;26.14;47.47
54592;BME280;40488;48.558;18.150;2023-07-31T10:01:46;99376.47;;;26.18;46.40
54592;BME280;40488;48.558;18.150;2023-07-31T10:04:15;99376.16;;;26.10;45.61
54592;BME280;40488;48.558;18.150;2023-07-31T10:06:50;99368.09;;;26.13;45.30
54592;BME280;40488;48.558;18.150;2023-07-31T10:09:21;99369.97;;;26.11;45.23
54592;BME280;40488;48.558;18.150;2023-07-31T10:11:58;99380.31;;;26.00;45.52
54592;BME280;40488;48.558;18.150;2023-07-31T10:14:29;99382.53;;;25.81;45.70
54592;BME280;40488;48.558;18.150;2023-07-31T10:16:59;99370.28;;;25.69;46.28
54592;BME280;40488;48.558;18.150;2023-07-31T10:19:29;99372.25;;;25.53;46.63
54592;BME280;40488;48.558;18.150;2023-07-31T10:21:59;99372.81;;;25.44;46.63
54592;BME280;40488;48.558;18.150;2023-07-31T10:24:31;99362.84;;;25.50;45.54
54592;BME280;40488;48.558;18.150;2023-07-31T10:27:01;99366.69;;;25.45;44.16
54592;BME280;40488;48.558;18.150;2023-07-31T10:29:31;99364.19;;;25.68;43.35
54592;BME280;40488;48.558;18.150;2023-07-31T10:32:01;99359.59;;;25.97;42.79
54592;BME280;40488;48.558;18.150;2023-07-31T10:34:34;99356.25;;;26.33;43.75
54592;BME280;40488;48.558;18.150;2023-07-31T10:37:20;99352.94;;;26.54;42.36
54592;BME280;40488;48.558;18.150;2023-07-31T10:40:05;99354.50;;;26.93;43.31
54592;BME280;40488;48.558;18.150;2023-07-31T10:42:37;99360.72;;;27.27;43.34
54592;BME280;40488;48.558;18.150;2023-07-31T10:45:08;99350.06;;;27.41;42.83
54592;BME280;40488;48.558;18.150;2023-07-31T10:47:38;99342.53;;;27.37;42.77
54592;BME280;40488;48.558;18.150;2023-07-31T10:50:17;99354.19;;;27.33;42.18
54592;BME280;40488;48.558;18.150;2023-07-31T10:52:48;99355.25;;;27.30;41.83
54592;BME280;40488;48.558;18.150;2023-07-31T10:55:30;99347.06;;;27.35;41.21
54592;BME280;40488;48.558;18.150;2023-07-31T10:58:06;99348.16;;;27.43;40.85
54592;BME280;40488;48.558;18.150;2023-07-31T11:00:37;99342.38;;;27.27;40.45
54592;BME280;40488;48.558;18.150;2023-07-31T11:03:08;99347.31;;;27.08;41.38
54592;BME280;40488;48.558;18.150;2023-07-31T11:05:46;99343.97;;;26.82;42.38
54592;BME280;40488;48.558;18.150;2023-07-31T11:08:17;99339.13;;;26.52;42.22
54592;BME280;40488;48.558;18.150;2023-07-31T11:10:50;99336.03;;;26.35;42.15
54592;BME280;40488;48.558;18.150;2023-07-31T11:13:20;99338.44;;;26.25;42.10
54592;BME280;40488;48.558;18.150;2023-07-31T11:15:48;99338.16;;;26.17;41.84
54592;BME280;40488;48.558;18.150;2023-07-31T11:18:17;99325.41;;;26.13;41.26
54592;BME280;40488;48.558;18.150;2023-07-31T11:20:46;99329.31;;;26.43;41.09
54592;BME280;40488;48.558;18.150;2023-07-31T11:23:17;99311.88;;;26.31;39.90
54592;BME280;40488;48.558;18.150;2023-07-31T11:25:46;99318.28;;;26.27;39.40
54592;BME280;40488;48.558;18.150;2023-07-31T11:28:18;99311.66;;;26.34;40.62
54592;BME280;40488;48.558;18.150;2023-07-31T11:30:47;99312.94;;;26.52;40.13
54592;BME280;40488;48.558;18.150;2023-07-31T11:33:16;99303.63;;;26.85;40.31
54592;BME280;40488;48.558;18.150;2023-07-31T11:35:46;99302.72;;;26.97;39.47
54592;BME280;40488;48.558;18.150;2023-07-31T11:38:22;99310.84;;;27.05;39.03
54592;BME280;40488;48.558;18.150;2023-07-31T11:40:52;99312.81;;;27.25;38.83
54592;BME280;40488;48.558;18.150;2023-07-31T11:43:22;99315.94;;;27.30;38.49
54592;BME280;40488;48.558;18.150;2023-07-31T11:45:53;99307.53;;;27.49;38.99
54592;BME280;40488;48.558;18.150;2023-07-31T11:48:24;99311.38;;;27.45;38.79
54592;BME280;40488;48.558;18.150;2023-07-31T11:50:59;99300.84;;;27.10;37.98
54592;BME280;40488;48.558;18.150;2023-07-31T11:53:33;99300.34;;;27.05;38.72
54592;BME280;40488;48.558;18.150;2023-07-31T11:56:04;99301.00;;;27.19;39.93
54592;BME280;40488;48.558;18.150;2023-07-31T11:58:38;99297.09;;;27.25;39.73
54592;BME280;40488;48.558;18.150;2023-07-31T12:01:08;99301.09;;;27.53;39.79
54592;BME280;40488;48.558;18.150;2023-07-31T12:03:38;99285.63;;;27.61;38.58
54592;BME280;40488;48.558;18.150;2023-07-31T12:06:08;99288.88;;;27.75;38.15
54592;BME280;40488;48.558;18.150;2023-07-31T12:08:37;99287.19;;;28.08;38.52
54592;BME280;40488;48.558;18.150;2023-07-31T12:11:07;99276.00;;;28.17;37.47
54592;BME280;40488;48.558;18.150;2023-07-31T12:13:38;99285.31;;;28.10;37.71
54592;BME280;40488;48.558;18.150;2023-07-31T12:16:07;99277.19;;;28.02;38.05
54592;BME280;40488;48.558;18.150;2023-07-31T12:18:37;99271.25;;;28.00;38.09
54592;BME280;40488;48.558;18.150;2023-07-31T12:21:07;99267.88;;;27.86;37.20
54592;BME280;40488;48.558;18.150;2023-07-31T12:23:39;99258.97;;;28.00;37.09
54592;BME280;40488;48.558;18.150;2023-07-31T12:26:11;99263.94;;;28.14;36.18
54592;BME280;40488;48.558;18.150;2023-07-31T12:28:43;99249.72;;;28.28;35.73
54592;BME280;40488;48.558;18.150;2023-07-31T12:31:14;99254.69;;;28.42;36.67
54592;BME280;40488;48.558;18.150;2023-07-31T12:33:46;99255.50;;;28.65;37.20
54592;BME280;40488;48.558;18.150;2023-07-31T12:36:17;99259.66;;;28.67;38.02
54592;BME280;40488;48.558;18.150;2023-07-31T12:38:46;99252.44;;;28.37;36.88
54592;BME280;40488;48.558;18.150;2023-07-31T12:41:15;99247.94;;;28.28;37.19
54592;BME280;40488;48.558;18.150;2023-07-31T12:43:45;99252.56;;;28.25;37.10
54592;BME280;40488;48.558;18.150;2023-07-31T12:46:15;99249.66;;;28.07;37.15
54592;BME280;40488;48.558;18.150;2023-07-31T12:48:44;99241.63;;;28.09;36.79
54592;BME280;40488;48.558;18.150;2023-07-31T12:51:13;99250.47;;;28.08;36.78
54592;BME280;40488;48.558;18.150;2023-07-31T12:53:42;99247.84;;;27.85;37.32
54592;BME280;40488;48.558;18.150;2023-07-31T12:56:11;99239.25;;;27.72;39.04
54592;BME280;40488;48.558;18.150;2023-07-31T12:58:40;99239.75;;;27.66;38.59
54592;BME280;40488;48.558;18.150;2023-07-31T13:01:10;99234.97;;;27.71;38.79
54592;BME280;40488;48.558;18.150;2023-07-31T13:03:39;99226.38;;;28.03;38.93
54592;BME280;40488;48.558;18.150;2023-07-31T13:06:08;99221.59;;;28.19;38.87
54592;BME280;40488;48.558;18.150;2023-07-31T13:08:37;99216.56;;;28.16;37.56
54592;BME280;40488;48.558;18.150;2023-07-31T13:11:05;99217.16;;;28.19;37.30
54592;BME280;40488;48.558;18.150;2023-07-31T13:13:34;99215.41;;;28.09;38.25
54592;BME280;40488;48.558;18.150;2023-07-31T13:16:03;99208.13;;;28.01;38.72
54592;BME280;40488;48.558;18.150;2023-07-31T13:18:34;99201.66;;;27.94;39.20
54592;BME280;40488;48.558;18.150;2023-07-31T13:21:03;99201.31;;;27.87;39.44
54592;BME280;40488;48.558;18.150;2023-07-31T13:23:32;99202.63;;;27.82;39.62
54592;BME280;40488;48.558;18.150;2023-07-31T13:26:01;99202.28;;;27.75;39.07
54592;BME280;40488;48.558;18.150;2023-07-31T13:28:29;99204.44;;;27.70;39.37
54592;BME280;40488;48.558;18.150;2023-07-31T13:30:58;99197.31;;;27.61;39.72
54592;BME280;40488;48.558;18.150;2023-07-31T13:33:27;99194.41;;;27.64;39.61
54592;BME280;40488;48.558;18.150;2023-07-31T13:36:06;99187.03;;;27.58;38.73
54592;BME280;40488;48.558;18.150;2023-07-31T13:38:35;99189.66;;;27.69;38.49
54592;BME280;40488;48.558;18.150;2023-07-31T13:41:03;99179.06;;;27.71;37.93
54592;BME280;40488;48.558;18.150;2023-07-31T13:43:32;99185.59;;;27.87;37.79
54592;BME280;40488;48.558;18.150;2023-07-31T13:46:01;99178.41;;;28.01;38.58
54592;BME280;40488;48.558;18.150;2023-07-31T13:48:34;99178.66;;;27.86;38.60
54592;BME280;40488;48.558;18.150;2023-07-31T13:51:03;99181.78;;;27.69;38.61
54592;BME280;40488;48.558;18.150;2023-07-31T13:53:34;99183.22;;;27.73;39.22
54592;BME280;40488;48.558;18.150;2023-07-31T13:56:03;99176.19;;;27.63;39.49
54592;BME280;40488;48.558;18.150;2023-07-31T13:58:33;99179.41;;;27.55;41.16
54592;BME280;40488;48.558;18.150;2023-07-31T14:01:02;99172.63;;;27.42;40.70
54592;BME280;40488;48.558;18.150;2023-07-31T14:03:31;99177.50;;;27.35;40.80
54592;BME280;40488;48.558;18.150;2023-07-31T14:06:00;99173.69;;;27.28;41.07
54592;BME280;40488;48.558;18.150;2023-07-31T14:08:29;99174.34;;;27.19;39.97
54592;BME280;40488;48.558;18.150;2023-07-31T14:10:59;99170.44;;;27.24;40.29
54592;BME280;40488;48.558;18.150;2023-07-31T14:13:28;99175.09;;;27.21;39.80
54592;BME280;40488;48.558;18.150;2023-07-31T14:15:57;99167.72;;;27.37;40.74
54592;BME280;40488;48.558;18.150;2023-07-31T14:18:26;99174.41;;;27.52;40.79
54592;BME280;40488;48.558;18.150;2023-07-31T14:20:55;99168.94;;;27.44;40.25
54592;BME280;40488;48.558;18.150;2023-07-31T14:23:24;99165.56;;;27.31;39.55
54592;BME280;40488;48.558;18.150;2023-07-31T14:25:53;99164.63;;;27.32;39.29
54592;BME280;40488;48.558;18.150;2023-07-31T14:28:23;99162.47;;;27.37;39.39
54592;BME280;40488;48.558;18.150;2023-07-31T14:30:52;99161.53;;;27.38;39.65
54592;BME280;40488;48.558;18.150;2023-07-31T14:33:21;99161.53;;;27.38;39.63
54592;BME280;40488;48.558;18.150;2023-07-31T14:35:51;99158.44;;;27.55;39.77
54592;BME280;40488;48.558;18.150;2023-07-31T14:38:20;99153.41;;;27.85;40.54
54592;BME280;40488;48.558;18.150;2023-07-31T14:40:51;99156.25;;;28.05;40.55
54592;BME280;40488;48.558;18.150;2023-07-31T14:43:20;99161.50;;;28.05;39.60
54592;BME280;40488;48.558;18.150;2023-07-31T14:45:51;99156.94;;;28.07;40.15
54592;BME280;40488;48.558;18.150;2023-07-31T14:48:21;99159.19;;;28.11;40.24
54592;BME280;40488;48.558;18.150;2023-07-31T14:50:50;99155.16;;;28.07;39.54
54592;BME280;40488;48.558;18.150;2023-07-31T14:53:19;99156.13;;;27.95;39.16
54592;BME280;40488;48.558;18.150;2023-07-31T14:55:47;99151.25;;;27.79;39.03
54592;BME280;40488;48.558;18.150;2023-07-31T14:58:16;99150.09;;;27.50;39.00
54592;BME280;40488;48.558;18.150;2023-07-31T15:00:45;99145.81;;;27.38;39.30
54592;BME280;40488;48.558;18.150;2023-07-31T15:03:15;99137.91;;;27.27;39.62
54592;BME280;40488;48.558;18.150;2023-07-31T15:05:44;99140.28;;;27.19;39.44
54592;BME280;40488;48.558;18.150;2023-07-31T15:08:13;99140.56;;;27.16;39.31
54592;BME280;40488;48.558;18.150;2023-07-31T15:10:42;99131.50;;;27.20;40.35
54592;BME280;40488;48.558;18.150;2023-07-31T15:13:11;99131.38;;;27.10;39.89
54592;BME280;40488;48.558;18.150;2023-07-31T15:15:40;99129.31;;;27.03;40.09
54592;BME280;40488;48.558;18.150;2023-07-31T15:18:09;99130.41;;;27.00;40.60
54592;BME280;40488;48.558;18.150;2023-07-31T15:20:39;99128.34;;;26.93;40.69
54592;BME280;40488;48.558;18.150;2023-07-31T15:23:08;99128.63;;;26.90;40.96
54592;BME280;40488;48.558;18.150;2023-07-31T15:25:37;99122.63;;;26.77;40.88
54592;BME280;40488;48.558;18.150;2023-07-31T15:28:06;99126.19;;;26.76;40.91
54592;BME280;40488;48.558;18.150;2023-07-31T15:30:36;99118.00;;;26.80;40.59
54592;BME280;40488;48.558;18.150;2023-07-31T15:33:05;99121.34;;;26.82;40.64
54592;BME280;40488;48.558;18.150;2023-07-31T15:35:34;99111.66;;;26.83;40.68
54592;BME280;40488;48.558;18.150;2023-07-31T15:38:04;99114.19;;;26.84;40.65
54592;BME280;40488;48.558;18.150;2023-07-31T15:40:33;99117.16;;;26.80;40.74
54592;BME280;40488;48.558;18.150;2023-07-31T15:43:02;99122.16;;;26.83;40.62
54592;BME280;40488;48.558;18.150;2023-07-31T15:45:31;99115.03;;;26.85;40.13
54592;BME280;40488;48.558;18.150;2023-07-31T15:48:00;99116.81;;;26.95;40.48
54592;BME280;40488;48.558;18.150;2023-07-31T15:50:29;99104.41;;;26.97;40.94
54592;BME280;40488;48.558;18.150;2023-07-31T15:52:58;99101.84;;;27.08;41.42
54592;BME280;40488;48.558;18.150;2023-07-31T15:55:28;99096.09;;;27.14;41.27
54592;BME280;40488;48.558;18.150;2023-07-31T15:57:57;99101.69;;;27.10;40.79
54592;BME280;40488;48.558;18.150;2023-07-31T16:00:26;99097.88;;;27.03;40.35
54592;BME280;40488;48.558;18.150;2023-07-31T16:02:55;99091.69;;;26.93;40.60
54592;BME280;40488;48.558;18.150;2023-07-31T16:05:24;99094.44;;;26.91;40.78
54592;BME280;40488;48.558;18.150;2023-07-31T16:07:53;99093.09;;;26.86;40.94